Time;durP1;ratioP1;P1;durP2;ratioP2;P2;SDS_P1;SDS_P2;PMS_P1;PMS_P2;Temp;Humidity;BMP_temperature;BMP_pressure;BME280_temperature;BME280_humidity;BME280_pressure;Samples;Min_cycle;Max_cycle;Signal;HPM_P1;HPM_P2
2023/02/03 00:00:49;;;;;;;2.67;1.13;;;;;;;2.37;100.00;100185.19;6198438;23;20209;-81
2023/02/03 00:03:16;;;;;;;2.47;1.10;;;;;;;2.38;100.00;100176.25;6228390;23;20205;-82
2023/02/03 00:05:45;;;;;;;2.33;1.20;;;;;;;2.33;100.00;100175.91;6181029;23;20662;-82
2023/02/03 00:08:13;;;;;;;3.97;1.23;;;;;;;2.20;100.00;100170.16;6187277;23;20209;-82
2023/02/03 00:10:41;;;;;;;2.53;1.30;;;;;;;2.27;100.00;100170.41;6229506;23;20206;-82
2023/02/03 00:13:14;;;;;;;2.27;1.27;;;;;;;2.32;100.00;100176.88;6150775;23;20201;-84
2023/02/03 00:16:00;;;;;;;2.33;1.20;;;;;;;2.31;100.00;100180.50;6218808;23;20197;-82
2023/02/03 00:18:28;;;;;;;2.67;1.20;;;;;;;2.32;100.00;100174.25;6227840;23;20205;-81
2023/02/03 00:20:55;;;;;;;2.67;1.47;;;;;;;2.51;100.00;100182.00;6216961;23;20252;-78
2023/02/03 00:23:22;;;;;;;2.07;1.40;;;;;;;2.31;100.00;100182.31;6219522;23;20204;-79
2023/02/03 00:25:49;;;;;;;2.37;1.33;;;;;;;2.41;100.00;100185.72;6208994;23;20223;-81
2023/02/03 00:28:17;;;;;;;1.80;1.17;;;;;;;2.48;100.00;100184.94;6233784;23;20209;-78
2023/02/03 00:30:44;;;;;;;1.80;1.40;;;;;;;2.44;100.00;100194.16;6221175;23;20206;-80
2023/02/03 00:33:11;;;;;;;2.33;1.43;;;;;;;2.40;100.00;100179.59;6236349;23;20261;-80
2023/02/03 00:35:41;;;;;;;2.77;1.40;;;;;;;2.48;100.00;100184.09;6212020;23;20209;-80
2023/02/03 00:38:08;;;;;;;2.37;1.50;;;;;;;2.39;100.00;100177.91;6201728;23;20260;-78
2023/02/03 00:40:35;;;;;;;1.83;1.40;;;;;;;2.50;100.00;100171.56;6216720;23;20201;-80
2023/02/03 00:43:02;;;;;;;2.83;1.60;;;;;;;2.51;100.00;100174.06;6218888;23;20750;-78
2023/02/03 00:45:28;;;;;;;1.77;1.40;;;;;;;2.50;100.00;100174.22;6219116;23;20236;-80
2023/02/03 00:47:55;;;;;;;1.57;1.33;;;;;;;2.54;100.00;100176.38;6243304;23;20209;-78
2023/02/03 00:50:22;;;;;;;1.87;1.20;;;;;;;2.73;100.00;100180.63;6242871;23;20251;-78
2023/02/03 00:52:48;;;;;;;3.13;1.50;;;;;;;2.60;100.00;100175.78;6221735;23;20239;-78
2023/02/03 00:55:15;;;;;;;2.13;1.40;;;;;;;2.72;100.00;100178.97;6222251;23;20208;-79
2023/02/03 00:57:42;;;;;;;2.33;1.30;;;;;;;2.76;100.00;100168.91;6221579;23;20232;-79
2023/02/03 01:00:10;;;;;;;2.50;1.60;;;;;;;2.73;100.00;100178.00;6221235;23;20251;-78
2023/02/03 01:02:36;;;;;;;3.77;1.60;;;;;;;2.68;100.00;100172.34;6221689;23;20201;-78
2023/02/03 01:05:03;;;;;;;2.83;1.60;;;;;;;2.81;100.00;100166.63;6222109;23;20609;-78
2023/02/03 01:07:32;;;;;;;2.40;1.40;;;;;;;2.79;100.00;100163.31;6220433;23;20228;-80
2023/02/03 01:09:58;;;;;;;2.20;1.40;;;;;;;2.65;100.00;100162.91;6221014;23;20205;-81
2023/02/03 01:12:28;;;;;;;2.00;1.50;;;;;;;2.79;100.00;100156.22;6219981;23;20677;-80
2023/02/03 01:14:55;;;;;;;2.70;1.50;;;;;;;2.84;100.00;100153.09;6221413;23;20608;-80
2023/02/03 01:17:21;;;;;;;1.50;1.40;;;;;;;2.69;100.00;100157.28;6221619;23;20205;-80
2023/02/03 01:19:50;;;;;;;1.50;1.33;;;;;;;2.66;100.00;100155.78;6220826;23;20209;-81
2023/02/03 01:22:17;;;;;;;1.47;1.30;;;;;;;2.69;100.00;100159.94;6219085;23;20205;-80
2023/02/03 01:24:44;;;;;;;1.40;1.30;;;;;;;2.62;100.00;100155.25;6226918;23;20190;-81
2023/02/03 01:27:10;;;;;;;2.23;1.33;;;;;;;2.80;100.00;100157.03;6203269;23;20271;-81
2023/02/03 01:29:37;;;;;;;1.40;1.23;;;;;;;2.61;100.00;100158.09;6223298;23;20221;-80
2023/02/03 01:32:04;;;;;;;2.13;1.40;;;;;;;2.56;100.00;100155.91;6217384;23;20209;-79
2023/02/03 01:34:33;;;;;;;1.53;1.43;;;;;;;2.53;100.00;100166.78;6218757;23;20225;-80
2023/02/03 01:37:00;;;;;;;1.37;1.20;;;;;;;2.56;100.00;100165.66;6241704;23;20209;-80
2023/02/03 01:39:27;;;;;;;2.53;1.50;;;;;;;2.48;100.00;100173.50;6217955;23;20280;-80
2023/02/03 01:41:54;;;;;;;1.53;1.27;;;;;;;2.35;100.00;100168.63;6218284;23;20288;-80
2023/02/03 01:44:38;;;;;;;1.90;1.40;;;;;;;2.27;100.00;100165.09;6218011;23;20205;-81
2023/02/03 01:47:17;;;;;;;2.87;1.43;;;;;;;2.38;100.00;100165.69;6204008;23;20206;-81
2023/02/03 01:49:48;;;;;;;2.00;1.27;;;;;;;2.29;100.00;100169.25;6219693;23;20704;-80
2023/02/03 01:52:15;;;;;;;1.83;1.00;;;;;;;2.34;100.00;100168.78;6203923;23;20205;-80
2023/02/03 01:54:44;;;;;;;1.60;1.23;;;;;;;2.22;100.00;100170.84;6197649;23;20202;-81
2023/02/03 01:57:18;;;;;;;2.40;1.17;;;;;;;2.27;100.00;100175.69;6218906;23;20681;-80
2023/02/03 01:59:45;;;;;;;1.80;1.30;;;;;;;2.20;100.00;100176.28;6218288;23;20216;-81
2023/02/03 02:02:12;;;;;;;1.90;0.90;;;;;;;2.45;100.00;100172.03;6217616;23;20232;-80
2023/02/03 02:05:16;;;;;;;1.43;1.10;;;;;;;2.28;100.00;100159.69;6219626;23;20259;-81
2023/02/03 02:07:44;;;;;;;1.80;0.93;;;;;;;2.40;100.00;100153.13;6159755;23;20274;-80
2023/02/03 02:10:11;;;;;;;0.73;0.73;;;;;;;2.41;100.00;100154.81;6219553;23;20205;-80
2023/02/03 02:12:40;;;;;;;1.30;1.00;;;;;;;2.40;100.00;100137.28;6218718;23;20206;-80
2023/02/03 02:15:08;;;;;;;0.83;0.70;;;;;;;2.44;100.00;100140.44;6243554;23;20268;-82
2023/02/03 02:17:40;;;;;;;1.00;0.73;;;;;;;2.36;100.00;100130.63;6217861;23;20213;-81
2023/02/03 02:20:37;;;;;;;0.90;0.90;;;;;;;2.45;100.00;100127.06;6216618;23;20209;-81
2023/02/03 02:23:22;;;;;;;1.23;0.83;;;;;;;2.50;100.00;100124.78;6218484;23;20276;-78
2023/02/03 02:26:09;;;;;;;0.87;0.50;;;;;;;2.56;100.00;100134.75;6218027;23;20217;-79
2023/02/03 02:29:24;;;;;;;1.70;0.80;;;;;;;2.61;100.00;100131.63;6215994;23;20221;-78
2023/02/03 02:32:06;;;;;;;0.67;0.67;;;;;;;2.61;100.00;100129.00;6194894;23;20197;-78
2023/02/03 02:34:47;;;;;;;0.50;0.50;;;;;;;2.74;100.00;100131.19;6219207;23;20205;-78
2023/02/03 02:37:36;;;;;;;0.50;0.50;;;;;;;2.71;100.00;100136.81;6219239;23;20201;-82
2023/02/03 02:40:22;;;;;;;0.80;0.40;;;;;;;2.89;100.00;100134.94;6234302;23;20209;-83
2023/02/03 02:43:09;;;;;;;1.27;0.50;;;;;;;2.91;100.00;100144.34;6225088;23;20204;-80
2023/02/03 02:46:01;;;;;;;1.63;0.87;;;;;;;2.89;100.00;100145.50;6209825;23;20209;-80
2023/02/03 02:48:37;;;;;;;0.50;0.40;;;;;;;2.94;100.00;100149.31;6208783;23;20217;-79
2023/02/03 02:51:06;;;;;;;0.50;0.40;;;;;;;2.94;100.00;100143.22;6207270;23;20658;-79
2023/02/03 02:53:36;;;;;;;1.13;0.50;;;;;;;3.05;100.00;100142.94;6198184;23;20209;-79
2023/02/03 02:56:06;;;;;;;0.47;0.37;;;;;;;2.88;100.00;100141.19;6221706;23;20596;-78
2023/02/03 02:58:35;;;;;;;0.93;0.40;;;;;;;2.89;100.00;100143.66;6221125;23;20201;-79
2023/02/03 03:01:02;;;;;;;0.23;0.23;;;;;;;3.06;100.00;100147.25;6221574;23;20209;-79
2023/02/03 03:03:29;;;;;;;0.70;0.40;;;;;;;2.97;100.00;100142.91;6247472;23;20554;-79
2023/02/03 03:06:00;;;;;;;0.97;0.30;;;;;;;2.86;100.00;100141.34;6199275;23;20205;-82
2023/02/03 03:08:39;;;;;;;1.13;0.33;;;;;;;2.92;100.00;100142.53;6222309;23;20205;-81
2023/02/03 03:11:06;;;;;;;0.67;0.37;;;;;;;2.79;100.00;100134.22;6222660;23;20284;-81
2023/02/03 03:13:38;;;;;;;0.37;0.33;;;;;;;2.80;100.00;100128.75;6224190;23;20280;-82
2023/02/03 03:16:06;;;;;;;0.97;0.33;;;;;;;2.74;100.00;100118.81;6194563;23;20209;-81
2023/02/03 03:18:42;;;;;;;0.93;0.30;;;;;;;2.85;100.00;100126.44;6222384;23;20208;-81
2023/02/03 03:21:13;;;;;;;0.20;0.20;;;;;;;2.82;100.00;100123.28;6246285;23;20212;-79
2023/02/03 03:23:43;;;;;;;0.60;0.40;;;;;;;2.78;100.00;100119.31;6223573;23;20252;-80
2023/02/03 03:26:21;;;;;;;0.50;0.27;;;;;;;2.87;100.00;100123.66;6221787;23;20229;-81
2023/02/03 03:28:50;;;;;;;1.33;0.30;;;;;;;2.73;100.00;100109.19;6224076;23;20580;-81
2023/02/03 03:31:18;;;;;;;0.77;0.30;;;;;;;2.65;100.00;100110.00;6222054;23;20201;-82
2023/02/03 03:33:46;;;;;;;1.13;0.30;;;;;;;2.66;100.00;100111.63;6222572;23;20213;-82
2023/02/03 03:36:24;;;;;;;0.30;0.20;;;;;;;2.60;100.00;100098.22;6222325;23;20205;-79
2023/02/03 03:39:16;;;;;;;1.13;0.30;;;;;;;2.66;100.00;100101.06;6223919;23;20238;-80
2023/02/03 03:41:59;;;;;;;0.20;0.13;;;;;;;2.61;100.00;100098.03;6222081;23;20208;-80
2023/02/03 03:44:32;;;;;;;0.80;0.30;;;;;;;2.53;100.00;100087.44;6225441;23;20229;-79
2023/02/03 03:47:05;;;;;;;1.43;0.30;;;;;;;2.55;100.00;100079.34;6224257;23;20213;-79
2023/02/03 03:49:59;;;;;;;0.60;0.30;;;;;;;2.58;100.00;100076.38;6261603;23;20192;-84
2023/02/03 03:53:00;;;;;;;0.50;0.20;;;;;;;2.61;100.00;100071.59;6227793;23;20619;-82
2023/02/03 03:55:29;;;;;;;0.43;0.30;;;;;;;2.56;100.00;100065.13;6228932;23;20214;-82
2023/02/03 03:58:10;;;;;;;0.97;0.30;;;;;;;2.56;100.00;100067.78;6230905;23;20188;-83
2023/02/03 04:00:38;;;;;;;0.30;0.30;;;;;;;2.49;100.00;100062.28;6229179;23;20178;-80
2023/02/03 04:03:11;;;;;;;0.30;0.30;;;;;;;2.42;100.00;100057.78;6226220;23;20673;-80
2023/02/03 04:05:38;;;;;;;0.80;0.40;;;;;;;2.52;100.00;100069.91;6228690;23;20201;-80
2023/02/03 04:08:05;;;;;;;1.10;0.80;;;;;;;2.53;100.00;100076.00;6226665;23;20165;-80
2023/02/03 04:10:37;;;;;;;0.93;0.60;;;;;;;2.49;100.00;100078.16;6226570;23;20166;-80
2023/02/03 04:13:04;;;;;;;1.50;0.70;;;;;;;2.53;100.00;100083.94;6226942;23;20150;-79
2023/02/03 04:15:32;;;;;;;1.27;0.90;;;;;;;2.48;100.00;100086.22;6224588;23;20245;-80
2023/02/03 04:18:00;;;;;;;1.23;0.77;;;;;;;2.47;100.00;100077.47;6249992;23;20161;-81
2023/02/03 04:20:30;;;;;;;0.70;0.70;;;;;;;2.43;100.00;100060.25;6220372;23;20186;-81
2023/02/03 04:22:57;;;;;;;1.07;0.80;;;;;;;2.36;100.00;100051.31;6218638;23;20157;-81
2023/02/03 04:25:25;;;;;;;0.50;0.37;;;;;;;2.40;100.00;100047.34;6217384;23;20204;-80
2023/02/03 04:27:53;;;;;;;0.67;0.30;;;;;;;2.47;100.00;100047.56;6220399;23;20173;-82
2023/02/03 04:30:20;;;;;;;0.60;0.30;;;;;;;2.34;100.00;100055.91;6219862;23;20161;-82
2023/02/03 04:32:47;;;;;;;0.80;0.60;;;;;;;2.35;100.00;100046.16;6219679;23;20192;-81
2023/02/03 04:35:14;;;;;;;1.63;0.50;;;;;;;2.50;100.00;100048.06;6219468;23;20241;-81
2023/02/03 04:37:40;;;;;;;1.03;0.40;;;;;;;2.37;100.00;100044.22;6219530;23;20160;-81
2023/02/03 04:40:09;;;;;;;0.47;0.47;;;;;;;2.40;100.00;100041.25;6219663;23;20199;-79
2023/02/03 04:42:37;;;;;;;0.80;0.60;;;;;;;2.34;100.00;100036.56;6219606;23;20158;-81
2023/02/03 04:45:05;;;;;;;1.27;0.57;;;;;;;2.35;100.00;100041.72;6219222;23;20161;-80
2023/02/03 04:47:32;;;;;;;2.70;0.57;;;;;;;2.22;100.00;100036.03;6220047;23;20506;-81
2023/02/03 04:49:59;;;;;;;0.70;0.70;;;;;;;2.30;100.00;100032.59;6217798;23;20513;-81
2023/02/03 04:52:25;;;;;;;0.90;0.50;;;;;;;2.25;100.00;100030.41;6219444;23;20153;-80
2023/02/03 04:54:52;;;;;;;0.83;0.47;;;;;;;2.20;100.00;100022.94;6219566;23;20225;-81
2023/02/03 04:57:19;;;;;;;0.87;0.40;;;;;;;2.20;100.00;100024.75;6219495;23;20172;-81
2023/02/03 04:59:45;;;;;;;0.53;0.37;;;;;;;2.27;100.00;100015.22;6218502;23;20241;-81
2023/02/03 05:02:12;;;;;;;0.50;0.40;;;;;;;2.22;100.00;100013.06;6219726;23;20253;-81
2023/02/03 05:04:39;;;;;;;1.00;0.40;;;;;;;2.22;100.00;100013.06;6218495;23;20162;-81
2023/02/03 05:07:05;;;;;;;0.77;0.50;;;;;;;2.15;100.00;100012.00;6218888;23;20269;-82
2023/02/03 05:09:32;;;;;;;0.60;0.60;;;;;;;2.27;100.00;100009.94;6219083;23;20506;-81
2023/02/03 05:11:58;;;;;;;0.70;0.43;;;;;;;2.31;100.00;100015.75;6218961;23;20168;-81
2023/02/03 05:14:25;;;;;;;1.60;0.40;;;;;;;2.37;100.00;100001.91;6242602;23;20165;-81
2023/02/03 05:16:52;;;;;;;2.47;0.70;;;;;;;2.35;100.00;100004.69;6219620;23;20184;-81
2023/02/03 05:19:18;;;;;;;0.67;0.30;;;;;;;2.31;100.00;100007.81;6217478;23;20158;-80
2023/02/03 05:21:45;;;;;;;0.50;0.50;;;;;;;2.29;100.00;100015.09;6219650;23;20228;-80
2023/02/03 05:24:11;;;;;;;0.43;0.43;;;;;;;2.24;100.00;100020.81;6216486;23;20280;-80
2023/02/03 05:26:38;;;;;;;3.20;0.60;;;;;;;2.19;100.00;100013.34;6218419;23;20276;-80
2023/02/03 05:29:05;;;;;;;1.63;0.73;;;;;;;2.27;100.00;99995.91;6217436;23;20202;-81
2023/02/03 05:31:32;;;;;;;1.77;0.90;;;;;;;2.28;100.00;99992.28;6217645;23;20209;-81
2023/02/03 05:33:59;;;;;;;2.70;1.20;;;;;;;2.38;100.00;99988.50;6216909;23;20223;-81
2023/02/03 05:36:25;;;;;;;2.00;1.50;;;;;;;2.39;100.00;99987.53;6219586;23;20201;-78
2023/02/03 05:38:52;;;;;;;3.33;2.20;;;;;;;2.34;100.00;99997.75;6219748;23;20658;-78
2023/02/03 05:44:04;;;;;;;5.37;3.63;;;;;;;2.24;100.00;99997.03;6219866;23;20761;-81
2023/02/03 05:46:30;;;;;;;6.70;3.73;;;;;;;2.18;100.00;99989.75;6219373;23;20201;-79
2023/02/03 05:48:57;;;;;;;5.67;3.67;;;;;;;2.27;100.00;99999.38;6243433;23;20212;-78
2023/02/03 05:51:24;;;;;;;4.57;4.13;;;;;;;2.26;100.00;99994.22;6218549;23;20228;-78
2023/02/03 05:53:52;;;;;;;5.00;3.63;;;;;;;2.24;100.00;99980.34;6220134;23;20716;-78
2023/02/03 05:56:19;;;;;;;4.07;2.37;;;;;;;2.22;100.00;99986.63;6216908;23;20209;-78
2023/02/03 05:58:45;;;;;;;2.50;2.00;;;;;;;2.25;100.00;99989.91;6217352;23;20543;-78
2023/02/03 06:01:12;;;;;;;2.10;1.67;;;;;;;2.22;100.00;99991.91;6218750;23;20288;-78
2023/02/03 06:03:39;;;;;;;1.47;1.30;;;;;;;2.17;100.00;99986.25;6217734;23;20212;-78
2023/02/03 06:06:05;;;;;;;3.83;1.40;;;;;;;2.13;100.00;99992.84;6214478;23;20701;-78
2023/02/03 06:08:32;;;;;;;2.27;1.27;;;;;;;2.11;100.00;99973.66;6218418;23;20215;-78
2023/02/03 06:10:59;;;;;;;1.90;1.03;;;;;;;2.20;100.00;99985.09;6218683;23;20220;-78
2023/02/03 06:13:26;;;;;;;1.33;1.23;;;;;;;2.14;100.00;99977.81;6242364;23;20205;-79
2023/02/03 06:15:53;;;;;;;1.90;1.10;;;;;;;2.09;100.00;99982.75;6217382;23;20272;-78
2023/02/03 06:18:20;;;;;;;1.30;1.03;;;;;;;2.07;100.00;99974.13;6242679;23;20267;-78
2023/02/03 06:20:46;;;;;;;4.00;0.87;;;;;;;2.21;100.00;99962.97;6219263;23;20280;-81
2023/02/03 06:23:15;;;;;;;1.43;0.70;;;;;;;2.25;100.00;99971.41;6219510;23;20205;-79
2023/02/03 06:25:42;;;;;;;3.60;0.73;;;;;;;2.45;100.00;99949.88;6243709;23;20232;-79
2023/02/03 06:28:09;;;;;;;1.33;0.50;;;;;;;2.61;100.00;99968.41;6243189;23;20520;-78
2023/02/03 06:30:36;;;;;;;1.10;0.50;;;;;;;2.72;100.00;99963.81;6219230;23;20280;-78
2023/02/03 06:33:03;;;;;;;1.27;0.40;;;;;;;2.81;100.00;99947.81;6243229;23;20213;-78
2023/02/03 06:35:29;;;;;;;1.17;0.37;;;;;;;3.05;100.00;99970.84;6219495;23;20202;-79
2023/02/03 06:37:56;;;;;;;0.30;0.30;;;;;;;3.26;100.00;99954.50;6219928;23;20256;-78
2023/02/03 06:40:23;;;;;;;0.47;0.20;;;;;;;3.43;100.00;99937.63;6216749;23;20201;-79
2023/02/03 06:42:50;;;;;;;0.20;0.20;;;;;;;3.63;100.00;99938.09;6243362;23;20689;-79
2023/02/03 06:45:16;;;;;;;1.63;0.20;;;;;;;3.74;100.00;99938.56;6219771;23;20272;-79
2023/02/03 06:47:44;;;;;;;0.33;0.20;;;;;;;3.79;100.00;99928.28;6220128;23;20284;-79
2023/02/03 06:50:13;;;;;;;2.43;0.20;;;;;;;3.97;100.00;99928.91;6218918;23;20209;-79
2023/02/03 06:52:39;;;;;;;1.50;0.13;;;;;;;4.02;100.00;99933.69;6243679;23;20209;-79
2023/02/03 06:55:07;;;;;;;0.63;0.20;;;;;;;4.11;100.00;99903.50;6220566;23;20285;-79
2023/02/03 06:57:33;;;;;;;0.20;0.20;;;;;;;4.24;100.00;99905.63;6217077;23;20281;-79
2023/02/03 07:00:00;;;;;;;0.83;0.10;;;;;;;4.33;100.00;99915.22;6220088;23;20280;-79
2023/02/03 07:02:27;;;;;;;0.10;0.10;;;;;;;4.41;100.00;99902.72;6217904;23;20216;-79
2023/02/03 07:04:53;;;;;;;0.47;0.10;;;;;;;4.45;100.00;99908.50;6220005;23;20213;-79
2023/02/03 07:07:20;;;;;;;0.20;0.10;;;;;;;4.53;100.00;99908.47;6219867;23;20206;-79
2023/02/03 07:09:46;;;;;;;1.17;0.20;;;;;;;4.55;100.00;99913.59;6219922;23;20229;-80
2023/02/03 07:12:13;;;;;;;0.20;0.10;;;;;;;4.67;100.00;99922.81;6218961;23;20181;-79
2023/02/03 07:14:40;;;;;;;0.20;0.20;;;;;;;4.62;100.00;99911.91;6218645;23;20207;-79
2023/02/03 07:17:06;;;;;;;0.20;0.10;;;;;;;4.70;100.00;99901.25;6219444;23;20519;-79
2023/02/03 07:19:33;;;;;;;0.23;0.10;;;;;;;4.75;100.00;99898.91;6243435;23;20706;-79
2023/02/03 07:22:00;;;;;;;0.60;0.27;;;;;;;4.78;100.00;99878.13;6218312;23;20740;-79
2023/02/03 07:24:26;;;;;;;0.30;0.20;;;;;;;4.90;100.00;99904.28;6219090;23;20211;-79
2023/02/03 07:26:53;;;;;;;0.20;0.10;;;;;;;4.96;100.00;99893.75;6219844;23;20562;-79
2023/02/03 07:29:20;;;;;;;0.20;0.20;;;;;;;4.97;100.00;99894.59;6219259;23;20225;-79
2023/02/03 07:31:46;;;;;;;1.23;0.30;;;;;;;5.11;100.00;99894.66;6218020;23;20231;-79
2023/02/03 07:34:13;;;;;;;0.40;0.30;;;;;;;5.15;100.00;99893.28;6218964;23;20232;-79
2023/02/03 07:36:40;;;;;;;0.77;0.20;;;;;;;5.28;100.00;99884.69;6217551;23;20253;-79
2023/02/03 07:39:07;;;;;;;1.53;0.30;;;;;;;5.36;100.00;99894.44;6219055;23;20239;-79
2023/02/03 07:41:33;;;;;;;0.50;0.40;;;;;;;5.36;100.00;99883.81;6220194;23;20284;-79
2023/02/03 07:44:00;;;;;;;0.50;0.40;;;;;;;5.53;100.00;99883.50;6219342;23;20205;-79
2023/02/03 07:46:27;;;;;;;0.30;0.30;;;;;;;5.54;100.00;99871.03;6219691;23;20202;-79
2023/02/03 07:48:53;;;;;;;0.60;0.50;;;;;;;5.54;100.00;99855.09;6219500;23;20239;-80
2023/02/03 07:51:20;;;;;;;0.60;0.50;;;;;;;5.56;100.00;99874.31;6219246;23;20205;-82
2023/02/03 07:53:47;;;;;;;1.10;0.57;;;;;;;5.60;100.00;99867.66;6218506;23;20249;-82
2023/02/03 07:56:13;;;;;;;0.80;0.40;;;;;;;5.79;100.00;99867.09;6220139;23;20205;-81
2023/02/03 07:58:40;;;;;;;0.40;0.40;;;;;;;5.77;100.00;99890.41;6220043;23;20551;-79
2023/02/03 08:01:12;;;;;;;0.83;0.40;;;;;;;5.82;100.00;99866.75;6219354;23;20213;-79
2023/02/03 08:03:39;;;;;;;0.67;0.40;;;;;;;5.91;100.00;99854.22;6227036;23;20289;-82
2023/02/03 08:06:08;;;;;;;0.60;0.40;;;;;;;6.06;100.00;99863.84;6230916;23;20209;-81
2023/02/03 08:08:40;;;;;;;0.63;0.40;;;;;;;6.06;100.00;99853.19;6209190;23;20197;-82
2023/02/03 08:11:09;;;;;;;0.40;0.40;;;;;;;6.11;100.00;99842.00;6232162;23;20267;-83
2023/02/03 08:13:37;;;;;;;0.40;0.30;;;;;;;6.13;100.00;99848.78;6233506;23;20232;-81
2023/02/03 08:16:06;;;;;;;1.23;0.60;;;;;;;6.30;100.00;99853.91;6232191;23;20205;-80
2023/02/03 08:18:33;;;;;;;0.40;0.40;;;;;;;6.24;100.00;99860.78;6209234;23;20216;-83
2023/02/03 08:21:03;;;;;;;0.30;0.30;;;;;;;6.35;100.00;99851.47;6208226;23;20264;-83
2023/02/03 08:23:33;;;;;;;0.77;0.30;;;;;;;6.47;100.00;99855.31;6234634;23;20209;-83
2023/02/03 08:26:01;;;;;;;0.43;0.40;;;;;;;6.59;100.00;99853.81;6196123;23;20201;-83
2023/02/03 08:28:29;;;;;;;1.03;0.30;;;;;;;6.62;100.00;99846.25;6233254;23;20201;-83
2023/02/03 08:30:56;;;;;;;0.67;0.40;;;;;;;6.69;100.00;99866.81;6211851;23;20209;-83
2023/02/03 08:33:24;;;;;;;0.50;0.40;;;;;;;6.79;100.00;99841.53;6210722;23;20618;-83
2023/02/03 08:35:53;;;;;;;0.40;0.20;;;;;;;6.79;100.00;99840.69;6259425;23;20209;-83
2023/02/03 08:38:21;;;;;;;2.20;0.37;;;;;;;6.87;100.00;99844.06;6233661;23;20209;-83
2023/02/03 08:40:50;;;;;;;0.50;0.30;;;;;;;6.87;100.00;99817.44;6236718;23;20206;-83
2023/02/03 08:43:19;;;;;;;0.30;0.30;;;;;;;6.92;100.00;99832.84;6232099;23;20240;-83
2023/02/03 08:45:48;;;;;;;1.47;0.40;;;;;;;6.94;100.00;99814.84;6233083;23;20212;-82
2023/02/03 08:48:16;;;;;;;1.20;0.60;;;;;;;6.89;100.00;99799.44;6194256;23;20217;-83
2023/02/03 09:44:53;;;;;;;0.40;0.40;;;;;;;8.00;100.00;99736.31;6220296;22;20276;-82
2023/02/03 09:47:24;;;;;;;0.73;0.40;;;;;;;8.19;100.00;99735.56;6228392;23;20211;-82
2023/02/03 09:49:55;;;;;;;0.67;0.37;;;;;;;8.33;100.00;99745.28;6231497;23;20558;-82
2023/02/03 09:52:25;;;;;;;0.40;0.40;;;;;;;8.31;100.00;99710.75;6231729;23;20209;-82
2023/02/03 09:55:17;;;;;;;0.57;0.40;;;;;;;8.39;100.00;99736.47;6232610;23;20257;-82
2023/02/03 09:58:05;;;;;;;1.53;0.40;;;;;;;8.54;100.00;99752.31;6236541;23;20209;-82
2023/02/03 10:00:36;;;;;;;0.30;0.20;;;;;;;8.38;100.00;99740.16;6234354;23;20202;-82
2023/02/03 10:03:28;;;;;;;0.30;0.30;;;;;;;8.32;100.00;99720.41;6231809;23;20217;-82
2023/02/03 10:06:00;;;;;;;0.50;0.27;;;;;;;8.39;100.00;99709.75;6233672;23;20205;-83
2023/02/03 10:08:45;;;;;;;0.77;0.20;;;;;;;8.34;100.00;99729.06;6217342;23;20209;-82
2023/02/03 10:11:38;;;;;;;0.27;0.27;;;;;;;8.26;100.00;99723.03;6255146;23;20209;-82
2023/02/03 10:14:28;;;;;;;0.50;0.30;;;;;;;8.28;100.00;99729.81;6224172;23;20205;-82
2023/02/03 10:17:28;;;;;;;0.50;0.30;;;;;;;8.30;100.00;99701.13;6185968;23;20205;-83
2023/02/03 10:20:20;;;;;;;0.20;0.17;;;;;;;8.49;100.00;99738.72;6229012;23;20264;-82
2023/02/03 10:22:52;;;;;;;0.73;0.30;;;;;;;8.43;100.00;99716.34;6203952;23;20197;-82
2023/02/03 10:25:23;;;;;;;0.60;0.30;;;;;;;8.52;100.00;99719.63;6179867;23;20201;-82
2023/02/03 10:27:57;;;;;;;0.70;0.20;;;;;;;8.34;100.00;99709.53;6230042;23;20206;-82
2023/02/03 10:30:27;;;;;;;0.30;0.23;;;;;;;8.49;100.00;99704.81;6228401;23;20297;-82
2023/02/03 10:33:16;;;;;;;0.40;0.30;;;;;;;8.41;100.00;99651.63;6204835;23;20260;-82
2023/02/03 10:35:43;;;;;;;0.37;0.20;;;;;;;8.50;100.00;99670.94;6228819;23;20211;-83
2023/02/03 10:38:17;;;;;;;1.60;0.37;;;;;;;8.48;100.00;99673.00;6231776;23;20232;-82
2023/02/03 10:40:44;;;;;;;0.13;0.13;;;;;;;8.73;100.00;99674.84;6231721;23;20205;-82
2023/02/03 10:45:57;;;;;;;0.20;0.20;;;;;;;8.49;100.00;99672.78;6232809;23;20205;-83
2023/02/03 10:48:24;;;;;;;0.20;0.20;;;;;;;8.40;100.00;99666.81;6229786;23;20658;-82
2023/02/03 10:50:51;;;;;;;0.10;0.10;;;;;;;8.55;100.00;99657.78;6232087;23;20197;-82
2023/02/03 10:53:31;;;;;;;0.20;0.20;;;;;;;8.50;100.00;99646.91;6233094;23;20258;-82
2023/02/03 10:56:05;;;;;;;0.80;0.30;;;;;;;8.49;100.00;99632.72;6231793;23;20280;-83
2023/02/03 10:58:33;;;;;;;0.60;0.20;;;;;;;8.42;100.00;99631.91;6231142;23;20202;-82
2023/02/03 11:01:11;;;;;;;0.20;0.20;;;;;;;8.42;100.00;99636.44;6231368;23;20255;-82
2023/02/03 11:03:42;;;;;;;0.20;0.20;;;;;;;8.48;100.00;99611.59;6232719;23;20258;-82
2023/02/03 11:06:14;;;;;;;0.40;0.20;;;;;;;8.51;100.00;99603.97;6232239;23;20239;-81
2023/02/03 11:08:43;;;;;;;0.43;0.20;;;;;;;8.52;100.00;99620.81;6230427;23;20205;-82
2023/02/03 11:11:19;;;;;;;0.70;0.20;;;;;;;8.38;100.00;99607.50;6206113;23;20213;-82
2023/02/03 11:13:47;;;;;;;0.50;0.30;;;;;;;8.44;100.00;99594.34;6230624;23;20219;-82
2023/02/03 11:16:21;;;;;;;0.40;0.40;;;;;;;8.42;100.00;99597.22;6205203;23;20237;-82
2023/02/03 11:19:03;;;;;;;0.23;0.10;;;;;;;8.43;100.00;99598.84;6229863;23;20284;-82
2023/02/03 11:21:35;;;;;;;0.30;0.20;;;;;;;8.35;100.00;99577.72;6230352;23;20213;-82
2023/02/03 11:24:06;;;;;;;0.30;0.20;;;;;;;8.39;100.00;99582.44;6231059;23;20209;-82
2023/02/03 11:26:44;;;;;;;0.77;0.40;;;;;;;8.43;100.00;99585.50;6229516;23;20205;-82
2023/02/03 11:29:22;;;;;;;0.40;0.30;;;;;;;8.35;100.00;99580.38;6229806;23;20221;-83
2023/02/03 11:31:51;;;;;;;0.10;0.10;;;;;;;8.20;100.00;99593.09;6228170;23;20213;-83
2023/02/03 11:34:33;;;;;;;0.20;0.20;;;;;;;8.20;100.00;99599.25;6216662;23;20216;-80
2023/02/03 11:37:38;;;;;;;0.10;0.10;;;;;;;8.19;100.00;99586.09;6213396;23;20215;-81
2023/02/03 11:40:09;;;;;;;0.13;0.13;;;;;;;8.26;100.00;99581.56;6230015;23;20216;-80
2023/02/03 11:42:41;;;;;;;0.40;0.40;;;;;;;8.13;100.00;99576.22;6229335;23;20232;-82
2023/02/03 11:45:24;;;;;;;0.20;0.20;;;;;;;8.22;100.00;99557.13;6230823;23;20244;-81
2023/02/03 11:48:18;;;;;;;0.70;0.33;;;;;;;8.11;100.00;99555.09;6232065;23;20253;-82
2023/02/03 11:51:03;;;;;;;0.20;0.20;;;;;;;8.17;100.00;99558.78;6231506;23;20216;-81
2023/02/03 11:53:42;;;;;;;0.50;0.20;;;;;;;8.26;100.00;99518.31;6232407;23;20257;-81
2023/02/03 11:56:40;;;;;;;0.60;0.20;;;;;;;8.27;100.00;99517.31;6230467;23;20210;-81
2023/02/03 11:59:39;;;;;;;0.30;0.20;;;;;;;8.26;100.00;99491.63;6229732;23;20214;-81
2023/02/03 12:02:22;;;;;;;0.30;0.20;;;;;;;8.27;100.00;99484.47;6218680;23;20224;-81
2023/02/03 12:05:13;;;;;;;0.20;0.20;;;;;;;8.30;100.00;99468.06;6206047;23;20257;-81
2023/02/03 12:07:58;;;;;;;0.40;0.27;;;;;;;8.23;100.00;99467.22;6206681;23;20221;-82
2023/02/03 12:11:09;;;;;;;0.20;0.20;;;;;;;8.34;100.00;99454.09;6204354;23;20676;-81
2023/02/03 12:14:00;;;;;;;0.20;0.20;;;;;;;8.28;100.00;99454.06;6229323;23;20214;-81
2023/02/03 12:16:48;;;;;;;0.33;0.20;;;;;;;8.44;100.00;99466.19;6231496;23;20277;-81
2023/02/03 12:19:18;;;;;;;0.20;0.20;;;;;;;8.36;100.00;99424.50;6231096;23;20209;-81
2023/02/03 13:37:16;;;;;;;0.10;0.10;;;;;;;8.35;100.00;99167.44;6224242;22;20212;-82
2023/02/03 13:40:03;;;;;;;0.73;0.20;;;;;;;8.51;100.00;99194.63;6228813;23;20257;-83
2023/02/03 13:42:31;;;;;;;0.20;0.20;;;;;;;8.39;100.00;99184.69;6228675;23;20207;-82
2023/02/03 13:45:13;;;;;;;0.40;0.20;;;;;;;8.43;100.00;99202.91;6227362;23;20209;-82
2023/02/03 13:47:45;;;;;;;1.20;0.20;;;;;;;8.48;100.00;99184.41;6227355;23;20232;-81
2023/02/03 13:50:30;;;;;;;0.20;0.20;;;;;;;8.26;100.00;99151.84;6227484;23;20209;-81
2023/02/03 13:53:16;;;;;;;0.20;0.20;;;;;;;8.11;100.00;99178.06;6226073;23;20213;-81
2023/02/03 13:55:53;;;;;;;0.60;0.20;;;;;;;8.20;100.00;99160.75;6227835;23;20230;-81
2023/02/03 13:58:32;;;;;;;0.23;0.20;;;;;;;8.27;100.00;99178.34;6226362;23;20269;-81
2023/02/03 14:01:02;;;;;;;0.10;0.10;;;;;;;8.16;100.00;99165.72;6226162;23;20237;-82
2023/02/03 14:03:29;;;;;;;0.50;0.20;;;;;;;8.08;100.00;99165.94;6224765;23;20232;-82
2023/02/03 14:05:58;;;;;;;0.20;0.20;;;;;;;7.94;100.00;99193.72;6229048;23;20206;-81